Historyczne dane pomiarowe

Dodano dane terminowe – wersja testowa.

Dane z okresu 1951-2019

Wersja bazy: 1.34 [2019-03-16, lista zmian], aktualizacja planowana na 2019-04-15

Dane meteo z obszaru Polski uzyskane na podstawie danych udostępnionych przez Instytut Meteorologii i Gospodarki Wodnej – Państwowy Instytut Badawczy.

 

Wybierz Datę:    

       

TemperaturaWilgotnośćWiatrCiśnienieOpadyŚniegCzas trwania zjawisk
 Stacja t tx tn tng RH VA  wxwx mslp ppp RRR   cm mm wxwxwxwxwxwxwx
1961-08-14 13.7 18.3 9.7- 80.3- 4.0 2.3---- 1.5------------
1961-08-13 13.8 18.4 9.7- 79.0- 0.3 4.7---- 0.0------------
1961-08-12 15.8 19.9 14.2- 85.3- 2.3 2.0---- 0.0------------
1961-08-11 16.6 19.6 14.1- 94.0- 7.7 1.3---- 0.2------------
1961-08-10 17.7 23.0 13.9- 87.3- 6.7 1.0---- 11.5------------
1961-08-09 18.2 23.5 13.8- 73.8- 2.0 1.7---- 0.0------------
1961-08-08 16.7 19.9 7.6- 78.3- 4.3 1.7---- 0.2------------
1961-08-07 14.3 20.3 12.9- 94.5- 5.3 2.0---- 8.6------------
1961-08-06 19.3 25.7 14.9- 78.0- 3.3 3.3---- 3.1------------
1961-08-05 18.0 23.9 9.4- 88.5- 4.7 2.7---- 0.0------------
1961-08-04 14.2 15.7 8.2- 92.8- 8.0 4.3---- 2.1------------
1961-08-03 13.2 17.9 10.9- 90.0- 3.7 1.7---- 10.3------------
1961-08-02 15.9 20.0 9.5- 83.3- 5.7 1.0---- 0.6------------
1961-08-01 13.9 19.2 12.4- 90.3- 8.0 4.7---- 0.0------------
1961-07-31 13.9 16.6 12.6- 88.8- 8.0 5.3---- 12.2------------
1961-07-30 14.5 17.5 9.9- 87.0- 8.0 4.7---- 0.0------------
1961-07-29 13.3 16.9 11.4- 83.3- 6.0 3.0---- 0.0------------
1961-07-28 13.1 15.9 12.1- 89.8- 8.0 3.0---- 2.9------------
1961-07-27 16.6 19.7 15.3- 79.5- 8.0 5.0---- 3.2------------
1961-07-26 17.5 22.6 13.9- 82.0- 7.7 4.3---- 1.9------------
1961-07-25 14.7 19.1 12.8- 85.8- 8.0 1.7---- 0.0------------
1961-07-24 13.9 16.6 12.5- 77.5- 6.7 5.0---- 0.0------------
1961-07-23 14.2 17.3 12.9- 81.8- 8.0 3.7---- 0.4------------
1961-07-22 14.3 17.2 13.4- 84.3- 7.0 3.3---- 0.0------------
1961-07-21 14.3 17.4 13.6- 93.8- 8.0 3.3---- 12.4------------
1961-07-20 15.6 19.6 11.9- 84.8- 7.3 5.3---- 2.1------------
1961-07-19 15.6 20.7 11.7- 80.5- 7.3 5.3---- 0.5------------
1961-07-18 14.6 18.9 11.5- 89.8- 8.0 2.7---- 13.1------------
1961-07-17 13.6 16.6 9.1- 90.8- 6.0 1.7---- 0.4------------
1961-07-16 15.9 22.9 13.2- 81.8- 3.0 2.0---- 3.3------------
1961-07-15 17.4 22.4 12.0- 73.0- 5.7 2.7---- 1.0------------
1961-07-14 13.7 19.5 11.8- 87.8- 7.3 4.7---- 1.1------------
1961-07-13 19.0 24.2 15.9- 85.8- 5.7 5.3---- 3.1------------
1961-07-12 19.5 24.1 12.4- 78.3- 4.3 2.0---- 0.0------------
1961-07-11 16.5 19.5 10.3- 80.0- 5.7 3.0---- 2.4------------
1961-07-10 12.8 16.2 10.7- 86.0- 6.7 3.0---- 2.1------------
1961-07-09 14.2 17.6 11.4- 89.3- 8.0 4.0---- 10.7------------
1961-07-08 15.5 20.5 11.5- 84.0- 7.3 1.7---- 9.4------------
1961-07-07 13.2 17.4 9.7- 79.0- 5.0 1.7---- 0.0------------
1961-07-06 12.7 17.0 8.7- 80.0- 7.3 5.0---- 8.5------------
1961-07-05 12.3 17.4 10.7- 67.3- 4.3 6.3---- 4.3------------
1961-07-04 15.3 17.7 13.5- 74.3- 5.0 4.3---- 0.0------------
1961-07-03 21.8 31.6 16.0- 74.5- 0.3 3.3---- 0.0------------
1961-07-02 23.2 30.6 11.1- 73.5- 0.0 0.3---- 0.0------------
1961-07-01 20.5 27.7 9.4- 74.0- 0.0 0.7---- 0.0------------
1961-06-30 18.8 25.5 9.2- 77.3- 0.3 2.3---- 0.0------------
1961-06-29 16.5 22.0 11.8- 81.5- 0.3 4.7---- 0.0------------
1961-06-28 15.0 19.3 11.3- 81.0- 5.7 7.0---- 0.0------------
1961-06-27 19.6 24.5 17.0- 80.8- 5.7 6.0---- 0.7------------
1961-06-26 21.8 27.0 11.7- 61.8- 0.0 2.0---- 0.0------------
1961-06-25 20.7 27.0 13.3- 66.0- 0.3 3.7---- 0.0------------
1961-06-24 17.2 23.4 12.3- 70.8- 1.7 4.7---- 0.0------------
1961-06-23 17.5 21.7 11.3- 63.3- 4.0 3.3---- 0.0------------
1961-06-22 16.7 23.0 11.5- 70.0- 1.3 2.7---- 0.0------------
1961-06-21 13.1 18.0 9.1- 78.8- 5.0 2.3---- 1.1------------
1961-06-20 14.2 19.4 9.2- 66.3- 2.3 2.7---- 0.0------------
1961-06-19 14.7 20.6 11.2- 60.3- 3.0 6.3---- 0.0------------
1961-06-18 19.0 24.6 14.4- 78.3- 5.3 4.7---- 0.6------------
1961-06-17 17.6 22.4 9.0- 80.8- 2.7 2.7---- 0.0------------
1961-06-16 13.3 19.5 11.0- 75.3- 6.0 4.3---- 0.0------------
348.7 ms

 

Źródłem pochodzenia danych jest Instytut Meteorologii i Gospodarki Wodnej – Państwowy Instytut Badawczy. Dane Instytutu Meteorologii i Gospodarki Wodnej – Państwowego Instytutu Badawczego zostały przetworzone.

Dane źródłowe można odnaleźć na stronie https://dane.imgw.pl